Time;durP1;ratioP1;P1;durP2;ratioP2;P2;SDS_P1;SDS_P2;PMS_P1;PMS_P2;Temp;Humidity;BMP_temperature;BMP_pressure;BME280_temperature;BME280_humidity;BME280_pressure;Samples;Min_cycle;Max_cycle;Signal;HPM_P1;HPM_P2
2024/01/30 00:01:34;;;;;;;1.07;1.03;;;;;;;;;;5039732;28;20287;-88
2024/01/30 00:04:02;;;;;;;0.73;0.73;;;;;;;;;;5039786;28;20268;-87
2024/01/30 00:06:30;;;;;;;3.60;1.37;;;;;;;;;;5037796;28;20200;-89
2024/01/30 00:08:57;;;;;;;0.80;0.80;;;;;;;;;;5037794;28;20243;-89
2024/01/30 00:11:25;;;;;;;0.93;0.73;;;;;;;;;;5038153;28;20207;-88
2024/01/30 00:13:53;;;;;;;0.50;0.50;;;;;;;;;;5037311;28;20223;-88
2024/01/30 00:16:24;;;;;;;0.80;0.77;;;;;;;;;;5038156;28;20214;-88
2024/01/30 00:18:54;;;;;;;0.83;0.83;;;;;;;;;;5042821;28;20207;-88
2024/01/30 00:21:21;;;;;;;1.23;0.83;;;;;;;;;;5047175;28;20449;-88
2024/01/30 00:23:49;;;;;;;1.80;1.60;;;;;;;;;;5039976;28;20230;-88
2024/01/30 00:26:17;;;;;;;2.40;0.83;;;;;;;;;;5041001;28;20196;-88
2024/01/30 00:28:47;;;;;;;1.13;1.13;;;;;;;;;;5039851;28;20205;-88
2024/01/30 00:31:15;;;;;;;1.83;1.73;;;;;;;;;;5039236;28;20203;-88
2024/01/30 00:33:43;;;;;;;2.37;1.47;;;;;;;;;;5039379;28;20189;-89
2024/01/30 00:36:13;;;;;;;0.57;0.57;;;;;;;;;;5040305;28;20200;-88
2024/01/30 00:38:41;;;;;;;1.90;1.00;;;;;;;;;;5041476;28;20204;-88
2024/01/30 00:41:09;;;;;;;1.10;0.70;;;;;;;;;;5037888;28;20661;-88
2024/01/30 00:43:37;;;;;;;2.67;1.70;;;;;;;;;;5036733;28;20750;-88
2024/01/30 00:46:12;;;;;;;0.93;0.93;;;;;;;;;;5037174;28;20220;-87
2024/01/30 00:48:40;;;;;;;1.40;1.30;;;;;;;;;;5036688;28;20277;-88
2024/01/30 00:51:09;;;;;;;1.47;1.03;;;;;;;;;;5038246;28;20208;-87
2024/01/30 00:53:41;;;;;;;0.77;0.77;;;;;;;;;;5038606;28;20634;-88
2024/01/30 00:56:11;;;;;;;1.30;1.13;;;;;;;;;;5038442;28;20367;-88
2024/01/30 00:58:38;;;;;;;2.23;1.27;;;;;;;;;;5037914;28;20592;-88
2024/01/30 01:01:07;;;;;;;3.17;1.10;;;;;;;;;;5037569;28;20220;-88
2024/01/30 01:03:34;;;;;;;2.83;1.20;;;;;;;;;;5037649;28;20314;-88
2024/01/30 01:06:02;;;;;;;1.00;0.97;;;;;;;;;;5037983;28;20196;-88
2024/01/30 01:08:30;;;;;;;0.73;0.73;;;;;;;;;;5036087;28;20397;-87
2024/01/30 01:10:59;;;;;;;1.00;1.00;;;;;;;;;;5037595;28;20318;-88
2024/01/30 01:13:27;;;;;;;1.00;1.00;;;;;;;;;;5037431;28;20253;-87
2024/01/30 01:15:54;;;;;;;0.87;0.87;;;;;;;;;;5035939;28;20207;-89
2024/01/30 01:18:22;;;;;;;0.87;0.83;;;;;;;;;;5037721;28;20271;-88
2024/01/30 01:20:51;;;;;;;9.53;1.67;;;;;;;;;;5043798;28;20226;-88
2024/01/30 01:23:19;;;;;;;2.33;0.97;;;;;;;;;;5051379;28;20287;-88
2024/01/30 01:25:50;;;;;;;1.47;1.00;;;;;;;;;;5055717;28;20218;-88
2024/01/30 01:28:18;;;;;;;1.27;1.03;;;;;;;;;;5053743;28;20204;-87
2024/01/30 01:30:47;;;;;;;0.80;0.80;;;;;;;;;;5045577;28;20199;-89
2024/01/30 01:33:16;;;;;;;3.87;0.93;;;;;;;;;;5042740;28;20739;-87
2024/01/30 01:35:44;;;;;;;1.23;1.23;;;;;;;;;;5040892;28;20200;-88
2024/01/30 01:38:12;;;;;;;2.00;0.87;;;;;;;;;;5037576;28;20196;-88
2024/01/30 01:40:41;;;;;;;1.90;1.07;;;;;;;;;;5036944;28;20200;-88
2024/01/30 01:43:08;;;;;;;5.30;0.90;;;;;;;;;;5035906;28;20261;-88
2024/01/30 01:45:37;;;;;;;1.80;0.97;;;;;;;;;;5036002;28;20254;-88
2024/01/30 01:48:06;;;;;;;0.40;0.40;;;;;;;;;;5035887;28;20217;-88
2024/01/30 01:50:33;;;;;;;3.00;1.10;;;;;;;;;;5036448;28;20200;-87
2024/01/30 01:53:01;;;;;;;4.57;1.33;;;;;;;;;;5037521;28;20230;-88
2024/01/30 01:55:32;;;;;;;1.13;1.03;;;;;;;;;;5037220;28;20199;-88
2024/01/30 01:57:59;;;;;;;1.07;0.70;;;;;;;;;;5035575;28;20188;-87
2024/01/30 02:00:27;;;;;;;1.30;1.30;;;;;;;;;;5036656;28;20266;-87
2024/01/30 02:02:58;;;;;;;0.83;0.83;;;;;;;;;;5036098;28;20231;-88
2024/01/30 02:05:26;;;;;;;0.60;0.60;;;;;;;;;;5036850;28;20196;-89
2024/01/30 02:07:54;;;;;;;1.50;0.80;;;;;;;;;;5035991;28;20270;-87
2024/01/30 02:10:21;;;;;;;8.30;1.43;;;;;;;;;;5035606;28;20232;-88
2024/01/30 02:12:48;;;;;;;0.90;0.90;;;;;;;;;;5035511;28;20206;-88
2024/01/30 02:15:16;;;;;;;0.60;0.60;;;;;;;;;;5034902;28;20286;-87
2024/01/30 02:17:43;;;;;;;0.70;0.70;;;;;;;;;;5035297;28;20246;-88
2024/01/30 02:20:12;;;;;;;2.57;0.93;;;;;;;;;;5036001;28;20210;-87
2024/01/30 02:22:42;;;;;;;2.73;1.33;;;;;;;;;;5036087;28;20230;-88
2024/01/30 02:25:11;;;;;;;0.60;0.60;;;;;;;;;;5039173;28;20231;-89
2024/01/30 02:27:39;;;;;;;1.17;1.17;;;;;;;;;;5036471;28;20665;-88
2024/01/30 02:30:08;;;;;;;1.47;1.47;;;;;;;;;;5043845;28;20283;-87
2024/01/30 02:32:35;;;;;;;1.00;1.00;;;;;;;;;;5037958;28;20577;-88
2024/01/30 02:35:03;;;;;;;5.20;0.97;;;;;;;;;;5035594;28;20200;-88
2024/01/30 02:37:32;;;;;;;1.30;0.70;;;;;;;;;;5033974;28;20208;-89
2024/01/30 02:40:01;;;;;;;0.97;0.93;;;;;;;;;;5034982;28;20200;-88
2024/01/30 02:42:27;;;;;;;0.90;0.90;;;;;;;;;;5034685;28;20202;-87
2024/01/30 02:44:55;;;;;;;1.20;1.20;;;;;;;;;;5033595;28;20295;-89
2024/01/30 02:47:21;;;;;;;0.73;0.73;;;;;;;;;;5034213;28;20599;-88
2024/01/30 02:49:49;;;;;;;1.53;1.10;;;;;;;;;;5034405;28;20200;-88
2024/01/30 02:52:19;;;;;;;1.00;0.97;;;;;;;;;;5034315;28;20195;-88
2024/01/30 02:54:49;;;;;;;1.07;1.07;;;;;;;;;;5035037;28;20263;-88
2024/01/30 02:57:18;;;;;;;0.77;0.77;;;;;;;;;;5034094;28;20214;-86
2024/01/30 02:59:46;;;;;;;0.70;0.70;;;;;;;;;;5034158;28;20211;-87
2024/01/30 03:02:14;;;;;;;2.40;1.10;;;;;;;;;;5034652;28;20211;-88
2024/01/30 03:04:42;;;;;;;4.27;1.60;;;;;;;;;;5034608;28;20299;-88
2024/01/30 03:07:09;;;;;;;0.50;0.50;;;;;;;;;;5035517;28;20200;-87
2024/01/30 03:09:40;;;;;;;1.13;0.40;;;;;;;;;;5036110;28;20487;-88
2024/01/30 03:12:08;;;;;;;1.23;1.13;;;;;;;;;;5035936;28;20256;-88
2024/01/30 03:14:39;;;;;;;0.90;0.40;;;;;;;;;;5033987;28;20242;-87
2024/01/30 03:17:06;;;;;;;3.47;1.07;;;;;;;;;;5035091;28;20196;-87
2024/01/30 03:19:33;;;;;;;1.70;1.40;;;;;;;;;;5035040;28;20199;-88
2024/01/30 03:22:01;;;;;;;0.83;0.80;;;;;;;;;;5034830;28;20199;-88
2024/01/30 03:24:31;;;;;;;2.73;0.80;;;;;;;;;;5035764;28;20231;-88
2024/01/30 03:26:59;;;;;;;0.63;0.63;;;;;;;;;;5035891;28;20240;-87
2024/01/30 03:29:26;;;;;;;0.47;0.47;;;;;;;;;;5035816;28;20669;-87
2024/01/30 03:31:55;;;;;;;1.00;0.90;;;;;;;;;;5036164;28;20234;-87
2024/01/30 03:34:23;;;;;;;0.57;0.57;;;;;;;;;;5035589;28;20204;-88
2024/01/30 03:36:50;;;;;;;0.57;0.57;;;;;;;;;;5035925;28;20200;-87
2024/01/30 03:39:18;;;;;;;1.03;0.57;;;;;;;;;;5036522;28;20219;-86
2024/01/30 03:41:46;;;;;;;2.10;1.20;;;;;;;;;;5038221;28;20677;-87
2024/01/30 03:44:26;;;;;;;1.10;1.10;;;;;;;;;;5036465;28;20235;-88
2024/01/30 03:46:55;;;;;;;0.70;0.67;;;;;;;;;;5035161;28;20272;-88
2024/01/30 03:49:22;;;;;;;0.50;0.50;;;;;;;;;;5034365;28;20200;-87
2024/01/30 03:51:49;;;;;;;1.60;1.50;;;;;;;;;;5035001;28;20226;-89
2024/01/30 03:54:17;;;;;;;0.93;0.60;;;;;;;;;;5035303;28;20204;-87
2024/01/30 03:56:48;;;;;;;1.60;1.00;;;;;;;;;;5035087;28;20207;-87
2024/01/30 03:59:14;;;;;;;1.30;0.77;;;;;;;;;;5034572;28;20196;-87
2024/01/30 04:01:42;;;;;;;0.50;0.50;;;;;;;;;;5034850;28;20204;-87
2024/01/30 04:04:11;;;;;;;4.33;0.50;;;;;;;;;;5034676;28;20278;-87
2024/01/30 04:06:39;;;;;;;0.47;0.47;;;;;;;;;;5034621;28;20204;-87
2024/01/30 04:09:06;;;;;;;0.97;0.97;;;;;;;;;;5034293;28;20236;-88
2024/01/30 04:11:34;;;;;;;0.37;0.37;;;;;;;;;;5035233;28;20204;-87
2024/01/30 04:14:01;;;;;;;0.67;0.67;;;;;;;;;;5033619;28;20200;-87
2024/01/30 04:16:29;;;;;;;1.47;0.30;;;;;;;;;;5033325;28;20245;-87
2024/01/30 04:18:58;;;;;;;0.60;0.60;;;;;;;;;;5033785;28;20638;-87
2024/01/30 04:21:27;;;;;;;1.07;1.07;;;;;;;;;;5034290;28;20204;-89
2024/01/30 04:23:55;;;;;;;0.73;0.73;;;;;;;;;;5034059;28;20234;-88
2024/01/30 04:29:19;;;;;;;0.43;0.43;;;;;;;;;;5076904;22;20236;-87
2024/01/30 04:31:51;;;;;;;0.83;0.83;;;;;;;;;;5042931;28;20195;-87
2024/01/30 04:34:18;;;;;;;0.40;0.40;;;;;;;;;;5031969;28;20199;-87
2024/01/30 04:36:53;;;;;;;0.50;0.50;;;;;;;;;;5033426;28;20683;-88
2024/01/30 04:39:21;;;;;;;0.80;0.80;;;;;;;;;;5035143;28;20676;-88
2024/01/30 04:41:51;;;;;;;0.57;0.57;;;;;;;;;;5048098;28;20754;-88
2024/01/30 04:44:19;;;;;;;0.33;0.33;;;;;;;;;;5042907;28;20263;-86
2024/01/30 04:46:50;;;;;;;1.33;1.17;;;;;;;;;;5031670;28;20207;-87
2024/01/30 04:49:25;;;;;;;0.50;0.50;;;;;;;;;;5040698;28;20203;-87
2024/01/30 04:51:59;;;;;;;0.80;0.80;;;;;;;;;;5033295;28;20196;-88
2024/01/30 04:54:27;;;;;;;0.60;0.60;;;;;;;;;;5023137;28;20193;-87
2024/01/30 04:56:54;;;;;;;0.57;0.57;;;;;;;;;;5023864;28;20213;-86
2024/01/30 04:59:23;;;;;;;0.93;0.93;;;;;;;;;;5023160;28;20692;-87
2024/01/30 05:01:51;;;;;;;0.60;0.60;;;;;;;;;;5023293;28;20201;-89
2024/01/30 05:04:19;;;;;;;0.60;0.53;;;;;;;;;;5030402;28;20307;-87
2024/01/30 05:06:48;;;;;;;3.47;1.37;;;;;;;;;;5027114;28;20312;-87
2024/01/30 05:09:17;;;;;;;0.87;0.87;;;;;;;;;;5030819;28;20212;-87
2024/01/30 05:11:49;;;;;;;0.90;0.90;;;;;;;;;;5030161;28;20228;-88
2024/01/30 05:14:17;;;;;;;0.77;0.77;;;;;;;;;;5023494;28;20240;-89
2024/01/30 05:16:46;;;;;;;0.40;0.40;;;;;;;;;;5019687;28;20193;-87
2024/01/30 05:19:18;;;;;;;2.10;0.73;;;;;;;;;;5034805;28;20677;-88
2024/01/30 05:21:49;;;;;;;0.90;0.90;;;;;;;;;;5039452;28;20204;-86
2024/01/30 05:24:18;;;;;;;0.77;0.77;;;;;;;;;;5037019;28;20690;-87
2024/01/30 05:27:00;;;;;;;0.70;0.70;;;;;;;;;;5040487;28;20207;-86
2024/01/30 05:29:31;;;;;;;2.00;1.57;;;;;;;;;;5053420;28;20277;-88
2024/01/30 05:31:58;;;;;;;0.97;0.80;;;;;;;;;;5048054;28;20660;-88
2024/01/30 05:34:26;;;;;;;2.13;0.83;;;;;;;;;;5037371;28;20196;-87
2024/01/30 05:36:53;;;;;;;0.60;0.60;;;;;;;;;;5037598;28;20234;-88
2024/01/30 05:39:22;;;;;;;2.07;1.63;;;;;;;;;;5037676;28;20697;-87
2024/01/30 05:41:50;;;;;;;0.83;0.83;;;;;;;;;;5037373;28;20196;-88
2024/01/30 05:44:18;;;;;;;0.93;0.90;;;;;;;;;;5039455;28;20232;-86
2024/01/30 05:46:47;;;;;;;1.47;1.37;;;;;;;;;;5040943;28;20272;-88
2024/01/30 05:49:14;;;;;;;0.80;0.80;;;;;;;;;;5036776;28;20285;-88
2024/01/30 05:51:41;;;;;;;1.90;1.03;;;;;;;;;;5038630;28;20677;-87
2024/01/30 05:54:09;;;;;;;0.90;0.90;;;;;;;;;;5035568;28;20212;-87
2024/01/30 05:56:37;;;;;;;1.03;1.03;;;;;;;;;;5041347;28;20208;-88
2024/01/30 05:59:04;;;;;;;0.80;0.80;;;;;;;;;;5039266;28;20200;-87
2024/01/30 06:01:32;;;;;;;1.27;1.20;;;;;;;;;;5035919;28;20215;-88
2024/01/30 06:03:59;;;;;;;1.00;1.00;;;;;;;;;;5036569;28;20227;-88
2024/01/30 06:06:28;;;;;;;0.80;0.80;;;;;;;;;;5037229;28;20261;-88
2024/01/30 06:08:59;;;;;;;0.87;0.83;;;;;;;;;;5036022;28;20785;-87
2024/01/30 06:11:29;;;;;;;1.80;1.13;;;;;;;;;;5036101;28;20223;-88
2024/01/30 06:13:59;;;;;;;0.93;0.93;;;;;;;;;;5035692;28;20258;-88
2024/01/30 06:16:29;;;;;;;0.57;0.57;;;;;;;;;;5026055;28;20212;-88
2024/01/30 06:18:58;;;;;;;1.30;0.97;;;;;;;;;;5028218;28;20200;-88
2024/01/30 06:21:46;;;;;;;1.27;1.27;;;;;;;;;;5028624;28;20689;-88
2024/01/30 06:24:17;;;;;;;3.37;1.33;;;;;;;;;;5026259;28;20309;-87
2024/01/30 06:26:46;;;;;;;0.70;0.70;;;;;;;;;;5016449;28;20192;-87
2024/01/30 06:29:16;;;;;;;1.27;1.23;;;;;;;;;;5030720;28;20279;-89
2024/01/30 06:31:47;;;;;;;1.03;0.77;;;;;;;;;;5027743;28;20606;-88
2024/01/30 06:34:15;;;;;;;1.40;1.33;;;;;;;;;;5036101;28;20307;-88
2024/01/30 06:36:43;;;;;;;0.70;0.70;;;;;;;;;;5038034;28;20196;-87
2024/01/30 06:39:11;;;;;;;1.43;1.37;;;;;;;;;;5042741;28;20208;-88
2024/01/30 06:41:38;;;;;;;3.13;1.83;;;;;;;;;;5040413;28;20213;-90
2024/01/30 06:44:09;;;;;;;1.03;1.03;;;;;;;;;;5042274;28;20232;-88
2024/01/30 06:46:40;;;;;;;1.50;1.20;;;;;;;;;;5041153;28;20189;-88
2024/01/30 06:49:08;;;;;;;2.73;1.53;;;;;;;;;;5034581;28;20199;-87
2024/01/30 06:51:36;;;;;;;4.33;1.00;;;;;;;;;;5034140;28;20244;-87
2024/01/30 06:54:04;;;;;;;2.43;1.43;;;;;;;;;;5034942;28;20232;-87
2024/01/30 06:56:31;;;;;;;1.20;1.10;;;;;;;;;;5036888;28;20210;-86
2024/01/30 06:59:00;;;;;;;1.67;1.50;;;;;;;;;;5036150;28;20188;-87
2024/01/30 07:01:29;;;;;;;3.50;1.20;;;;;;;;;;5034096;28;20226;-87
2024/01/30 07:04:02;;;;;;;2.13;1.73;;;;;;;;;;5035357;28;20208;-87
2024/01/30 07:06:29;;;;;;;2.33;0.87;;;;;;;;;;5034231;28;20637;-88
2024/01/30 07:08:57;;;;;;;1.90;1.30;;;;;;;;;;5033912;28;20243;-88
2024/01/30 07:11:28;;;;;;;1.77;1.67;;;;;;;;;;5034465;28;20279;-88
2024/01/30 07:13:58;;;;;;;2.57;1.23;;;;;;;;;;5034336;28;20549;-87
2024/01/30 07:16:26;;;;;;;1.20;0.77;;;;;;;;;;5035214;28;20223;-87
2024/01/30 07:18:53;;;;;;;0.90;0.90;;;;;;;;;;5034293;28;20195;-88
2024/01/30 07:21:28;;;;;;;2.83;1.53;;;;;;;;;;5034775;28;20211;-87
2024/01/30 07:23:56;;;;;;;5.63;2.03;;;;;;;;;;5037898;28;20312;-87
2024/01/30 07:26:24;;;;;;;1.80;1.57;;;;;;;;;;5037286;28;20207;-87
2024/01/30 07:28:51;;;;;;;3.43;1.47;;;;;;;;;;5035929;28;20873;-87
2024/01/30 07:31:20;;;;;;;1.73;1.63;;;;;;;;;;5026858;28;20201;-87
2024/01/30 07:33:49;;;;;;;1.13;0.80;;;;;;;;;;5014474;28;20207;-88
2024/01/30 07:36:17;;;;;;;0.27;0.27;;;;;;;;;;5014312;28;20203;-89
2024/01/30 07:38:47;;;;;;;0.83;0.83;;;;;;;;;;5014780;28;20207;-88
2024/01/30 07:41:18;;;;;;;0.47;0.30;;;;;;;;;;5014889;28;20196;-89
2024/01/30 07:43:47;;;;;;;0.60;0.50;;;;;;;;;;5014498;28;20207;-88
2024/01/30 07:46:17;;;;;;;0.53;0.53;;;;;;;;;;5015328;28;20601;-87
2024/01/30 07:48:46;;;;;;;0.90;0.90;;;;;;;;;;5015747;28;20204;-88
2024/01/30 07:51:13;;;;;;;0.60;0.60;;;;;;;;;;5015933;28;20657;-88
2024/01/30 07:53:41;;;;;;;0.90;0.90;;;;;;;;;;5013712;28;20197;-88
2024/01/30 07:56:10;;;;;;;0.63;0.63;;;;;;;;;;4997980;28;20197;-89
2024/01/30 07:58:42;;;;;;;0.60;0.60;;;;;;;;;;5020773;28;20200;-88
2024/01/30 08:01:12;;;;;;;0.70;0.70;;;;;;;;;;5027923;28;20208;-89
2024/01/30 08:03:41;;;;;;;6.00;0.93;;;;;;;;;;5041406;28;20619;-87
2024/01/30 08:06:11;;;;;;;1.07;0.70;;;;;;;;;;5024679;28;20228;-88
2024/01/30 08:08:41;;;;;;;0.60;0.60;;;;;;;;;;5028566;28;20288;-90
2024/01/30 08:11:09;;;;;;;0.90;0.80;;;;;;;;;;5040731;28;20196;-87
2024/01/30 08:13:41;;;;;;;1.43;0.90;;;;;;;;;;5052999;28;20196;-87
2024/01/30 08:16:12;;;;;;;0.90;0.90;;;;;;;;;;5033008;28;20204;-88
2024/01/30 08:18:47;;;;;;;0.60;0.50;;;;;;;;;;5020373;28;20224;-87
2024/01/30 08:21:14;;;;;;;1.27;1.17;;;;;;;;;;5024813;28;20196;-87
2024/01/30 08:23:46;;;;;;;0.83;0.83;;;;;;;;;;5030071;28;20200;-87
2024/01/30 08:26:15;;;;;;;0.57;0.57;;;;;;;;;;5033410;28;20619;-87
2024/01/30 08:28:44;;;;;;;1.50;0.83;;;;;;;;;;5029503;28;20220;-88
2024/01/30 08:31:12;;;;;;;1.10;1.07;;;;;;;;;;5023520;28;20197;-88
2024/01/30 08:33:39;;;;;;;10.90;2.10;;;;;;;;;;5020435;28;20311;-88
2024/01/30 08:36:07;;;;;;;1.30;1.20;;;;;;;;;;5018334;28;20260;-87
2024/01/30 08:38:36;;;;;;;1.30;1.30;;;;;;;;;;5025359;28;20292;-88
2024/01/30 08:41:04;;;;;;;1.37;1.37;;;;;;;;;;5053075;28;20291;-85
2024/01/30 08:43:32;;;;;;;1.20;1.20;;;;;;;;;;5046002;28;20725;-87
2024/01/30 08:46:02;;;;;;;0.80;0.80;;;;;;;;;;5044946;28;20246;-87
2024/01/30 08:48:29;;;;;;;1.07;1.07;;;;;;;;;;5051467;28;20220;-86
2024/01/30 08:50:57;;;;;;;0.97;0.97;;;;;;;;;;5038183;28;20236;-87
2024/01/30 08:53:25;;;;;;;1.33;1.03;;;;;;;;;;5035699;28;20219;-88
2024/01/30 08:55:53;;;;;;;0.70;0.70;;;;;;;;;;5035185;28;20243;-87
2024/01/30 08:58:22;;;;;;;0.67;0.67;;;;;;;;;;5037106;28;20211;-88
2024/01/30 09:00:51;;;;;;;0.63;0.63;;;;;;;;;;5034998;28;20247;-88
2024/01/30 09:03:24;;;;;;;0.90;0.90;;;;;;;;;;5036175;28;20284;-87
2024/01/30 09:08:33;;;;;;;2.87;1.10;;;;;;;;;;5032732;28;20228;-88
2024/01/30 09:11:00;;;;;;;1.20;1.20;;;;;;;;;;5034269;28;20220;-87
2024/01/30 09:13:31;;;;;;;1.80;1.60;;;;;;;;;;5034579;28;20221;-88
2024/01/30 09:16:00;;;;;;;6.43;1.80;;;;;;;;;;5031636;28;20216;-88
2024/01/30 09:18:29;;;;;;;1.70;1.60;;;;;;;;;;5025464;28;20231;-88
2024/01/30 09:20:59;;;;;;;1.70;1.27;;;;;;;;;;5011859;28;20321;-88
2024/01/30 09:23:27;;;;;;;0.80;0.80;;;;;;;;;;5033316;28;20212;-87
2024/01/30 09:25:55;;;;;;;0.40;0.40;;;;;;;;;;5033098;28;20243;-86
2024/01/30 09:28:23;;;;;;;1.10;0.70;;;;;;;;;;5046127;28;20232;-87
2024/01/30 09:30:50;;;;;;;1.50;1.40;;;;;;;;;;5050127;28;20219;-89
2024/01/30 09:33:18;;;;;;;1.47;0.93;;;;;;;;;;5053301;28;20226;-88
2024/01/30 09:35:49;;;;;;;0.70;0.70;;;;;;;;;;5053479;28;20279;-88
2024/01/30 09:38:16;;;;;;;1.43;1.00;;;;;;;;;;5054235;28;20224;-86
2024/01/30 09:40:44;;;;;;;0.60;0.60;;;;;;;;;;5053258;28;20216;-88
2024/01/30 09:43:19;;;;;;;1.20;1.10;;;;;;;;;;5055116;28;20246;-88
2024/01/30 09:45:49;;;;;;;1.10;1.00;;;;;;;;;;5053421;28;20214;-87
2024/01/30 09:48:17;;;;;;;1.07;0.97;;;;;;;;;;5055485;28;20287;-88
2024/01/30 09:50:47;;;;;;;1.40;1.30;;;;;;;;;;5053734;28;20220;-88
2024/01/30 09:53:16;;;;;;;0.83;0.70;;;;;;;;;;5054728;28;20208;-89
2024/01/30 09:55:49;;;;;;;1.50;0.80;;;;;;;;;;5055151;28;20216;-87
2024/01/30 09:58:17;;;;;;;0.80;0.80;;;;;;;;;;5053994;28;20227;-87
2024/01/30 10:00:47;;;;;;;1.30;0.97;;;;;;;;;;5054409;28;20245;-87
2024/01/30 10:03:19;;;;;;;1.90;1.17;;;;;;;;;;5053948;28;20279;-89
2024/01/30 10:05:51;;;;;;;1.10;0.97;;;;;;;;;;5047239;28;20567;-88
2024/01/30 10:08:19;;;;;;;1.53;1.30;;;;;;;;;;5050487;28;20212;-89
2024/01/30 10:10:51;;;;;;;1.77;1.67;;;;;;;;;;5054583;28;20223;-89
2024/01/30 10:13:19;;;;;;;1.30;1.20;;;;;;;;;;5053883;28;20219;-85
2024/01/30 10:15:50;;;;;;;5.00;1.27;;;;;;;;;;5037290;28;20328;-89
2024/01/30 10:18:18;;;;;;;3.67;0.80;;;;;;;;;;5054987;28;20212;-89
2024/01/30 10:20:48;;;;;;;2.90;1.03;;;;;;;;;;5036817;28;20228;-89
2024/01/30 10:23:19;;;;;;;2.03;1.27;;;;;;;;;;5028225;28;20224;-88
2024/01/30 10:25:47;;;;;;;1.60;1.43;;;;;;;;;;5024649;28;20614;-89
2024/01/30 10:28:15;;;;;;;0.63;0.63;;;;;;;;;;5020042;28;20252;-90
2024/01/30 10:30:44;;;;;;;1.17;1.17;;;;;;;;;;5020074;28;20224;-90
2024/01/30 10:33:12;;;;;;;2.20;1.57;;;;;;;;;;5019423;28;20228;-89
2024/01/30 10:35:41;;;;;;;1.43;0.93;;;;;;;;;;5021593;28;20314;-88
2024/01/30 10:38:09;;;;;;;2.30;1.40;;;;;;;;;;5036853;28;20223;-89
2024/01/30 10:40:40;;;;;;;1.03;0.57;;;;;;;;;;5037111;28;20228;-90
2024/01/30 10:43:09;;;;;;;1.03;1.03;;;;;;;;;;5037936;28;20216;-90
2024/01/30 10:45:46;;;;;;;1.53;1.43;;;;;;;;;;5038256;28;20667;-90
2024/01/30 10:48:14;;;;;;;4.23;0.83;;;;;;;;;;5040168;28;20841;-89
2024/01/30 10:50:44;;;;;;;6.03;1.33;;;;;;;;;;5036586;28;20223;-89
2024/01/30 10:53:13;;;;;;;3.70;0.93;;;;;;;;;;5038009;28;20226;-90
2024/01/30 10:55:43;;;;;;;1.30;1.00;;;;;;;;;;5037504;28;20239;-89
2024/01/30 10:58:11;;;;;;;0.80;0.70;;;;;;;;;;5036609;28;20310;-88
2024/01/30 11:00:41;;;;;;;2.17;1.60;;;;;;;;;;5035804;28;20319;-90
2024/01/30 11:03:09;;;;;;;2.27;0.90;;;;;;;;;;5035808;28;20266;-91
2024/01/30 11:05:37;;;;;;;1.30;0.97;;;;;;;;;;5036898;28;20251;-90
2024/01/30 11:08:12;;;;;;;1.77;1.67;;;;;;;;;;5037053;28;20243;-88
2024/01/30 11:10:50;;;;;;;1.10;1.10;;;;;;;;;;5035057;28;20296;-90
2024/01/30 11:13:17;;;;;;;0.73;0.53;;;;;;;;;;5014415;28;20746;-90
2024/01/30 11:15:46;;;;;;;1.63;1.30;;;;;;;;;;5017888;28;20572;-89
2024/01/30 11:18:26;;;;;;;0.97;0.97;;;;;;;;;;5015657;28;20249;-89
2024/01/30 11:20:55;;;;;;;3.40;1.17;;;;;;;;;;5036148;28;20255;-89
2024/01/30 11:23:23;;;;;;;0.63;0.63;;;;;;;;;;5039006;28;20310;-87
2024/01/30 11:25:55;;;;;;;1.43;1.43;;;;;;;;;;5050457;28;20276;-89
2024/01/30 11:28:23;;;;;;;0.70;0.70;;;;;;;;;;5049170;28;20230;-89
2024/01/30 11:30:50;;;;;;;0.93;0.73;;;;;;;;;;5052774;28;20262;-88
2024/01/30 11:33:30;;;;;;;1.70;1.60;;;;;;;;;;5037607;28;20705;-88
2024/01/30 11:35:59;;;;;;;0.50;0.50;;;;;;;;;;5037895;28;20227;-88
2024/01/30 11:38:28;;;;;;;2.23;0.80;;;;;;;;;;5024053;28;20224;-90
2024/01/30 11:40:59;;;;;;;2.30;0.40;;;;;;;;;;5040401;28;20297;-88
2024/01/30 11:43:27;;;;;;;2.20;0.73;;;;;;;;;;5024141;28;20247;-88
2024/01/30 11:46:02;;;;;;;0.40;0.40;;;;;;;;;;5025230;28;20343;-85
2024/01/30 11:48:30;;;;;;;0.70;0.70;;;;;;;;;;5018455;28;20325;-88
2024/01/30 11:51:02;;;;;;;2.33;1.60;;;;;;;;;;5036104;28;20228;-87
2024/01/30 11:53:31;;;;;;;0.57;0.40;;;;;;;;;;5038938;28;20267;-87
2024/01/30 11:56:01;;;;;;;0.53;0.50;;;;;;;;;;5036771;28;20285;-87
2024/01/30 11:58:29;;;;;;;1.87;0.90;;;;;;;;;;5037838;28;20285;-89
2024/01/30 12:00:57;;;;;;;0.60;0.60;;;;;;;;;;5036735;28;20225;-89
2024/01/30 12:03:25;;;;;;;0.93;0.73;;;;;;;;;;5024232;28;20228;-88
2024/01/30 12:05:57;;;;;;;1.33;1.23;;;;;;;;;;5022750;28;20252;-88
2024/01/30 12:08:25;;;;;;;1.33;0.97;;;;;;;;;;5024722;28;20224;-88
2024/01/30 12:10:57;;;;;;;0.60;0.60;;;;;;;;;;5022715;28;20224;-90
2024/01/30 12:13:27;;;;;;;1.13;1.13;;;;;;;;;;5023898;28;20228;-88
2024/01/30 12:15:55;;;;;;;2.37;1.57;;;;;;;;;;5021215;28;20237;-87
2024/01/30 12:18:23;;;;;;;0.60;0.60;;;;;;;;;;5018314;28;20224;-87
2024/01/30 12:21:01;;;;;;;2.67;0.70;;;;;;;;;;5035011;28;20297;-88
2024/01/30 12:23:30;;;;;;;0.90;0.87;;;;;;;;;;5039778;28;20211;-88
2024/01/30 12:25:59;;;;;;;1.23;1.13;;;;;;;;;;5037504;28;20634;-87
2024/01/30 12:28:29;;;;;;;1.17;0.90;;;;;;;;;;5038857;28;20265;-86
2024/01/30 12:30:57;;;;;;;0.83;0.60;;;;;;;;;;5036797;28;20231;-87
2024/01/30 12:33:28;;;;;;;1.17;0.90;;;;;;;;;;5036241;28;20232;-86
2024/01/30 12:35:56;;;;;;;1.93;1.43;;;;;;;;;;5036400;28;20227;-85
2024/01/30 12:38:25;;;;;;;1.37;1.17;;;;;;;;;;5036166;28;20232;-87
2024/01/30 12:40:55;;;;;;;0.97;0.87;;;;;;;;;;5035383;28;20231;-85
2024/01/30 12:43:23;;;;;;;0.80;0.80;;;;;;;;;;5036955;28;20337;-85
2024/01/30 12:45:54;;;;;;;1.30;1.30;;;;;;;;;;5020656;28;20763;-86
2024/01/30 12:48:23;;;;;;;1.20;0.97;;;;;;;;;;5019288;28;20227;-88
2024/01/30 12:50:51;;;;;;;8.80;1.13;;;;;;;;;;5022874;28;20234;-88
2024/01/30 12:53:19;;;;;;;1.87;1.50;;;;;;;;;;5018804;28;20587;-88
2024/01/30 12:55:54;;;;;;;1.53;1.43;;;;;;;;;;5018703;28;20285;-87
2024/01/30 12:58:21;;;;;;;1.07;1.07;;;;;;;;;;5020357;28;20239;-88
2024/01/30 13:00:58;;;;;;;0.67;0.67;;;;;;;;;;5003685;28;20216;-88
2024/01/30 13:03:29;;;;;;;0.73;0.73;;;;;;;;;;5034360;28;20288;-87
2024/01/30 13:05:57;;;;;;;1.13;0.93;;;;;;;;;;5022850;28;20220;-88
2024/01/30 13:08:26;;;;;;;0.87;0.87;;;;;;;;;;5020238;28;20239;-89
2024/01/30 13:10:56;;;;;;;1.30;1.30;;;;;;;;;;5019478;28;20207;-88
2024/01/30 13:13:24;;;;;;;1.87;1.07;;;;;;;;;;5021484;28;20232;-87
2024/01/30 13:15:53;;;;;;;1.30;0.73;;;;;;;;;;5023687;28;20208;-88
2024/01/30 13:18:27;;;;;;;1.10;1.10;;;;;;;;;;5021856;28;20207;-87
2024/01/30 13:21:01;;;;;;;1.53;1.43;;;;;;;;;;5020657;28;20196;-88
2024/01/30 13:23:29;;;;;;;3.67;1.07;;;;;;;;;;5021441;28;20189;-87
2024/01/30 13:25:58;;;;;;;0.60;0.60;;;;;;;;;;5019172;28;20731;-87
2024/01/30 13:28:28;;;;;;;4.30;1.60;;;;;;;;;;5017548;28;20299;-89
2024/01/30 13:30:55;;;;;;;1.33;1.13;;;;;;;;;;5019999;28;20275;-88
2024/01/30 13:33:23;;;;;;;1.00;1.00;;;;;;;;;;5021834;28;20201;-88
2024/01/30 13:35:52;;;;;;;0.70;0.70;;;;;;;;;;5024623;28;20212;-89
2024/01/30 13:38:22;;;;;;;0.50;0.50;;;;;;;;;;5028316;28;20200;-88
2024/01/30 13:40:51;;;;;;;2.20;0.80;;;;;;;;;;5032280;28;20197;-88
2024/01/30 13:43:20;;;;;;;0.83;0.70;;;;;;;;;;5033235;28;20208;-88
2024/01/30 13:45:52;;;;;;;0.97;0.97;;;;;;;;;;5033723;28;20276;-89
2024/01/30 13:48:21;;;;;;;1.07;0.97;;;;;;;;;;5029510;28;20193;-87
2024/01/30 13:50:59;;;;;;;1.00;0.73;;;;;;;;;;5027741;28;20208;-88
2024/01/30 13:53:33;;;;;;;0.53;0.53;;;;;;;;;;5028586;28;20251;-88
2024/01/30 13:56:01;;;;;;;2.90;1.13;;;;;;;;;;5021636;28;20328;-87
2024/01/30 13:58:29;;;;;;;1.83;1.60;;;;;;;;;;5018134;28;20308;-88
2024/01/30 14:00:57;;;;;;;4.10;1.13;;;;;;;;;;5019358;28;20196;-90
2024/01/30 14:03:27;;;;;;;1.90;1.27;;;;;;;;;;5023820;28;20201;-88
2024/01/30 14:05:55;;;;;;;0.70;0.70;;;;;;;;;;5033398;28;20252;-87
2024/01/30 14:08:28;;;;;;;0.40;0.40;;;;;;;;;;5035166;28;20228;-88
2024/01/30 14:11:08;;;;;;;3.60;1.23;;;;;;;;;;5019365;28;20293;-88
2024/01/30 14:13:38;;;;;;;1.27;1.17;;;;;;;;;;5021114;28;20200;-88
2024/01/30 14:16:07;;;;;;;0.83;0.70;;;;;;;;;;5019536;28;20207;-89
2024/01/30 14:18:35;;;;;;;1.57;1.47;;;;;;;;;;5022427;28;20200;-89
2024/01/30 14:21:03;;;;;;;1.23;0.83;;;;;;;;;;5029857;28;20205;-88
2024/01/30 14:23:31;;;;;;;1.70;1.57;;;;;;;;;;5028769;28;20211;-88
2024/01/30 14:26:01;;;;;;;2.93;1.33;;;;;;;;;;5033435;28;20193;-87
2024/01/30 14:28:28;;;;;;;1.37;1.17;;;;;;;;;;5023346;28;20234;-87
2024/01/30 14:31:00;;;;;;;3.37;1.67;;;;;;;;;;5035698;28;20206;-87
2024/01/30 14:33:32;;;;;;;2.77;1.57;;;;;;;;;;5031640;28;20583;-88
2024/01/30 14:36:00;;;;;;;1.20;1.17;;;;;;;;;;5030141;28;20196;-88
2024/01/30 14:38:30;;;;;;;0.77;0.77;;;;;;;;;;5029098;28;20208;-88
2024/01/30 14:41:00;;;;;;;1.17;0.90;;;;;;;;;;5025779;28;20211;-88
2024/01/30 14:43:29;;;;;;;1.40;1.13;;;;;;;;;;5018309;28;20203;-87
2024/01/30 14:45:58;;;;;;;1.50;1.40;;;;;;;;;;5017183;28;20208;-88
2024/01/30 14:48:25;;;;;;;2.47;1.17;;;;;;;;;;5017445;28;20327;-89
2024/01/30 14:50:55;;;;;;;0.90;0.90;;;;;;;;;;5017930;28;20251;-89
2024/01/30 14:53:24;;;;;;;1.03;1.00;;;;;;;;;;5017804;28;20669;-88
2024/01/30 14:55:52;;;;;;;1.23;1.23;;;;;;;;;;5017609;28;20211;-88
2024/01/30 14:58:23;;;;;;;8.13;1.17;;;;;;;;;;5017458;28;20224;-88
2024/01/30 15:00:51;;;;;;;1.33;1.17;;;;;;;;;;5016831;28;20200;-89